Time;durP1;ratioP1;P1;durP2;ratioP2;P2;SDS_P1;SDS_P2;PMS_P1;PMS_P2;Temp;Humidity;BMP_temperature;BMP_pressure;BME280_temperature;BME280_humidity;BME280_pressure;Samples;Min_cycle;Max_cycle;Signal;HPM_P1;HPM_P2
2022/08/03 00:00:05;;;;;;;7.72;2.58;;;19.40;99.90;;;;;;5018667;28;20041;-77
2022/08/03 00:02:31;;;;;;;9.85;2.50;;;19.40;99.90;;;;;;5015945;28;20054;-77
2022/08/03 00:04:57;;;;;;;7.28;2.60;;;19.40;99.90;;;;;;5004807;28;20056;-78
2022/08/03 00:07:23;;;;;;;8.73;2.80;;;19.40;99.90;;;;;;5010784;28;20532;-77
2022/08/03 00:09:49;;;;;;;7.53;2.20;;;19.40;99.90;;;;;;4996064;28;20050;-78
2022/08/03 00:12:15;;;;;;;7.70;2.28;;;19.40;99.90;;;;;;5013034;28;20241;-77
2022/08/03 00:14:41;;;;;;;7.10;2.47;;;19.40;99.90;;;;;;5018346;28;20049;-77
2022/08/03 00:17:07;;;;;;;6.05;2.47;;;19.40;99.90;;;;;;5003339;28;20049;-78
2022/08/03 00:19:33;;;;;;;8.00;2.60;;;19.40;99.90;;;;;;4998675;28;20396;-77
2022/08/03 00:22:02;;;;;;;9.13;2.30;;;19.40;99.90;;;;;;5009888;28;20450;-78
2022/08/03 00:24:29;;;;;;;12.00;2.40;;;19.40;99.90;;;;;;4997344;28;20080;-77
2022/08/03 00:26:55;;;;;;;7.45;2.08;;;19.40;99.90;;;;;;5011146;28;20041;-77
2022/08/03 00:29:24;;;;;;;5.00;1.90;;;19.40;99.90;;;;;;4990461;28;20488;-77
2022/08/03 00:31:50;;;;;;;6.72;2.35;;;19.40;99.90;;;;;;5004559;28;20511;-78
2022/08/03 00:34:16;;;;;;;6.63;2.13;;;19.40;99.90;;;;;;5019989;28;20042;-78
2022/08/03 00:36:42;;;;;;;4.72;1.92;;;19.40;99.90;;;;;;4996797;28;20061;-77
2022/08/03 00:39:08;;;;;;;8.70;2.25;;;19.40;99.90;;;;;;4999001;28;20121;-78
2022/08/03 00:41:33;;;;;;;8.77;1.95;;;19.50;99.90;;;;;;5017781;28;20557;-78
2022/08/03 00:43:59;;;;;;;8.80;2.17;;;19.50;99.90;;;;;;5005233;28;20084;-77
2022/08/03 00:46:25;;;;;;;11.40;2.25;;;19.50;99.90;;;;;;4981519;28;20058;-79
2022/08/03 00:48:51;;;;;;;6.90;1.95;;;19.50;99.90;;;;;;5017094;28;20041;-78
2022/08/03 00:51:18;;;;;;;7.65;2.08;;;19.50;99.90;;;;;;5005979;28;20038;-77
2022/08/03 00:53:44;;;;;;;7.78;2.10;;;19.60;99.90;;;;;;5000934;28;20341;-78
2022/08/03 00:56:13;;;;;;;10.05;1.90;;;19.50;99.90;;;;;;4997251;28;20385;-77
2022/08/03 00:58:40;;;;;;;7.90;2.10;;;19.50;99.90;;;;;;5011038;28;20190;-77
2022/08/03 01:01:06;;;;;;;7.35;1.90;;;19.50;99.90;;;;;;4992554;28;20038;-77
2022/08/03 01:03:32;;;;;;;10.77;2.20;;;19.50;99.90;;;;;;4995430;28;20074;-77
2022/08/03 01:06:14;;;;;;;8.63;2.13;;;19.40;99.90;;;;;;5018306;28;20119;-78
2022/08/03 01:08:59;;;;;;;8.77;2.47;;;19.40;99.90;;;;;;5014934;28;20115;-77
2022/08/03 01:11:36;;;;;;;7.50;1.95;;;19.40;99.90;;;;;;5003593;28;20045;-78
2022/08/03 01:14:36;;;;;;;7.18;1.88;;;19.30;99.90;;;;;;5016111;28;20081;-78
2022/08/03 01:17:23;;;;;;;10.65;2.58;;;19.20;99.90;;;;;;4988961;28;20124;-77
2022/08/03 01:19:56;;;;;;;8.48;2.50;;;19.20;99.90;;;;;;5010787;28;20044;-77
2022/08/03 01:22:50;;;;;;;9.38;2.50;;;19.20;99.90;;;;;;5020463;28;20049;-77
2022/08/03 01:25:40;;;;;;;8.38;2.28;;;19.10;99.90;;;;;;5010529;28;20347;-77
2022/08/03 01:28:37;;;;;;;7.25;2.25;;;19.00;99.90;;;;;;5008515;28;20504;-77
2022/08/03 01:31:07;;;;;;;7.88;1.95;;;19.00;99.90;;;;;;5001441;28;20040;-77
2022/08/03 01:33:47;;;;;;;7.70;2.42;;;19.00;99.90;;;;;;5009513;28;20426;-77
2022/08/03 01:36:21;;;;;;;6.05;2.30;;;19.00;99.90;;;;;;5032382;28;20524;-77
2022/08/03 01:38:53;;;;;;;6.97;2.38;;;18.90;99.90;;;;;;5018899;28;20496;-77
2022/08/03 01:41:21;;;;;;;6.85;2.38;;;18.90;99.90;;;;;;5002877;28;20072;-77
2022/08/03 01:43:49;;;;;;;7.65;2.50;;;18.90;99.90;;;;;;5022548;28;20045;-77
2022/08/03 01:46:17;;;;;;;9.00;3.15;;;18.80;99.90;;;;;;5014033;28;20579;-77
2022/08/03 01:48:46;;;;;;;6.32;2.60;;;18.80;99.90;;;;;;5012364;28;20042;-77
2022/08/03 01:51:14;;;;;;;8.63;2.80;;;18.80;99.90;;;;;;5012108;28;20054;-77
2022/08/03 01:53:43;;;;;;;8.95;2.90;;;18.80;99.90;;;;;;5000653;28;20300;-77
2022/08/03 01:56:10;;;;;;;7.07;2.58;;;18.80;99.90;;;;;;5011657;28;20104;-77
2022/08/03 01:58:37;;;;;;;6.57;2.70;;;18.80;99.90;;;;;;5000504;28;20049;-77
2022/08/03 02:01:04;;;;;;;7.07;2.80;;;18.80;99.90;;;;;;5021202;28;20075;-77
2022/08/03 02:03:36;;;;;;;9.02;2.92;;;18.80;99.90;;;;;;5021543;28;20269;-77
2022/08/03 02:06:02;;;;;;;10.50;3.72;;;18.70;99.90;;;;;;5017445;28;20534;-77
2022/08/03 02:08:29;;;;;;;7.88;3.20;;;18.70;99.90;;;;;;4990800;28;20552;-77
2022/08/03 02:10:57;;;;;;;10.35;3.38;;;18.70;99.90;;;;;;5019396;28;20038;-77
2022/08/03 02:13:32;;;;;;;9.25;3.15;;;18.70;99.90;;;;;;5013720;28;20057;-77
2022/08/03 02:15:58;;;;;;;6.93;3.00;;;18.70;99.90;;;;;;5040352;28;20132;-77
2022/08/03 02:18:29;;;;;;;9.27;2.75;;;18.70;99.90;;;;;;5027950;28;20045;-77
2022/08/03 02:20:55;;;;;;;10.13;3.78;;;18.70;99.90;;;;;;5015310;28;20053;-77
2022/08/03 02:23:24;;;;;;;10.68;3.72;;;18.70;99.90;;;;;;4995941;28;20098;-76
2022/08/03 02:25:57;;;;;;;8.93;3.33;;;18.60;99.90;;;;;;5016314;28;20052;-76
2022/08/03 02:28:31;;;;;;;8.07;3.08;;;18.70;99.90;;;;;;4996476;28;20551;-77
2022/08/03 02:30:59;;;;;;;11.85;3.58;;;18.60;99.90;;;;;;5000182;28;20044;-77
2022/08/03 02:33:32;;;;;;;10.57;3.67;;;18.60;99.90;;;;;;5011180;28;20037;-79
2022/08/03 02:36:00;;;;;;;10.95;3.20;;;18.50;99.90;;;;;;5021591;28;20615;-78
2022/08/03 02:38:31;;;;;;;9.52;3.10;;;18.50;99.90;;;;;;4996181;28;20121;-77
2022/08/03 02:40:59;;;;;;;8.02;2.90;;;18.50;99.90;;;;;;5017223;28;20053;-77
2022/08/03 02:43:30;;;;;;;11.77;3.83;;;18.60;99.90;;;;;;4997847;28;20068;-77
2022/08/03 02:45:56;;;;;;;9.02;3.33;;;18.50;99.90;;;;;;5020755;28;20481;-78
2022/08/03 02:48:29;;;;;;;8.30;3.28;;;18.50;99.90;;;;;;5011550;28;20055;-78
2022/08/03 02:50:58;;;;;;;10.45;3.47;;;18.50;99.90;;;;;;5010069;28;20050;-78
2022/08/03 02:53:26;;;;;;;10.05;3.42;;;18.50;99.90;;;;;;4999205;28;20471;-78
2022/08/03 02:55:55;;;;;;;10.43;3.33;;;18.60;99.90;;;;;;5005743;28;20042;-77
2022/08/03 02:58:23;;;;;;;8.73;3.08;;;18.50;99.90;;;;;;5017932;28;20562;-77
2022/08/03 03:00:51;;;;;;;7.72;2.63;;;18.50;99.90;;;;;;5009745;28;20064;-77
2022/08/03 03:03:17;;;;;;;8.02;3.17;;;18.50;99.90;;;;;;5019500;28;20117;-78
2022/08/03 03:05:44;;;;;;;9.35;3.10;;;18.50;99.90;;;;;;5007523;28;20060;-77
2022/08/03 03:08:13;;;;;;;10.13;3.40;;;18.60;99.90;;;;;;4997744;28;20049;-77
2022/08/03 03:10:40;;;;;;;10.15;3.42;;;18.50;99.90;;;;;;4999108;28;20111;-77
2022/08/03 03:13:07;;;;;;;9.95;3.42;;;18.50;99.90;;;;;;4999055;28;20334;-78
2022/08/03 03:15:36;;;;;;;9.95;3.28;;;18.50;99.90;;;;;;5018575;28;20574;-77
2022/08/03 03:18:02;;;;;;;8.68;3.42;;;18.50;99.90;;;;;;5025363;28;20488;-77
2022/08/03 03:20:34;;;;;;;8.40;3.58;;;18.40;99.90;;;;;;5017873;28;20482;-77
2022/08/03 03:23:01;;;;;;;7.93;3.45;;;18.40;99.90;;;;;;5014043;28;20519;-78
2022/08/03 03:25:33;;;;;;;9.75;3.95;;;18.40;99.90;;;;;;5017860;28;20045;-77
2022/08/03 03:28:01;;;;;;;10.15;4.32;;;18.40;99.90;;;;;;5017431;28;20484;-77
2022/08/03 03:30:28;;;;;;;10.07;3.80;;;18.30;99.90;;;;;;5006994;28;20461;-77
2022/08/03 03:32:56;;;;;;;7.18;3.40;;;18.30;99.90;;;;;;5021185;28;20083;-77
2022/08/03 03:35:25;;;;;;;9.27;3.63;;;18.30;99.90;;;;;;5033058;28;20049;-76
2022/08/03 03:37:54;;;;;;;9.23;4.10;;;18.30;99.90;;;;;;5005577;28;20053;-77
2022/08/03 03:40:21;;;;;;;10.60;3.65;;;18.30;99.90;;;;;;4995748;28;20492;-78
2022/08/03 03:42:48;;;;;;;9.45;3.70;;;18.30;99.90;;;;;;5008247;28;20037;-78
2022/08/03 03:45:14;;;;;;;10.35;3.92;;;18.30;99.90;;;;;;5001848;28;20041;-77
2022/08/03 03:47:40;;;;;;;11.23;4.13;;;18.30;99.90;;;;;;5024097;28;20132;-77
2022/08/03 03:50:06;;;;;;;9.35;4.15;;;18.20;99.90;;;;;;5021446;28;20143;-77
2022/08/03 03:52:33;;;;;;;8.57;3.83;;;18.20;99.90;;;;;;5006428;28;20304;-78
2022/08/03 03:54:59;;;;;;;10.35;4.00;;;18.20;99.90;;;;;;5020231;28;20041;-77
2022/08/03 03:57:25;;;;;;;9.07;3.97;;;18.20;99.90;;;;;;4999467;28;20412;-77
2022/08/03 03:59:51;;;;;;;10.15;3.28;;;18.20;99.90;;;;;;5014260;28;20052;-77
2022/08/03 04:02:17;;;;;;;11.77;4.10;;;18.20;99.90;;;;;;5018525;28;20042;-78
2022/08/03 04:13:13;;;;;;;10.98;3.80;;;18.20;99.90;;;;;;5016361;28;20057;-77
2022/08/03 04:15:40;;;;;;;8.73;3.72;;;18.10;99.90;;;;;;5020370;28;20064;-77
2022/08/03 04:18:10;;;;;;;11.73;4.15;;;18.10;99.90;;;;;;5022561;28;20052;-77
2022/08/03 04:20:39;;;;;;;14.25;3.65;;;18.10;99.90;;;;;;5016864;28;20061;-77
2022/08/03 04:23:06;;;;;;;11.82;3.90;;;18.20;99.90;;;;;;5022764;28;20037;-78
2022/08/03 04:25:35;;;;;;;10.45;4.18;;;18.10;99.90;;;;;;5019853;28;20389;-77
2022/08/03 04:28:03;;;;;;;12.18;3.78;;;18.20;99.90;;;;;;4993607;28;20076;-78
2022/08/03 04:30:32;;;;;;;10.50;3.63;;;18.20;99.90;;;;;;5019391;28;20053;-78
2022/08/03 04:33:01;;;;;;;13.43;4.25;;;18.20;99.90;;;;;;5011924;28;20091;-77
2022/08/03 04:35:30;;;;;;;10.30;3.63;;;18.20;99.90;;;;;;5020905;28;20397;-78
2022/08/03 04:38:02;;;;;;;9.55;3.58;;;18.20;99.90;;;;;;4993857;28;20050;-78
2022/08/03 04:40:33;;;;;;;8.93;3.50;;;18.20;99.90;;;;;;5007288;28;20049;-77
2022/08/03 04:43:00;;;;;;;12.68;3.70;;;18.30;99.90;;;;;;5006530;28;20664;-77
2022/08/03 04:45:28;;;;;;;9.50;3.58;;;18.30;99.90;;;;;;5007130;28;20034;-77
2022/08/03 04:47:54;;;;;;;11.65;3.58;;;18.30;99.90;;;;;;5018332;28;20503;-77
2022/08/03 04:50:21;;;;;;;11.57;3.55;;;18.30;99.90;;;;;;5004692;28;20045;-77
2022/08/03 04:52:47;;;;;;;9.13;4.28;;;18.30;99.90;;;;;;5022241;28;20045;-77
2022/08/03 04:55:31;;;;;;;10.05;4.10;;;18.30;99.90;;;;;;5015710;28;20097;-77
2022/08/03 04:57:58;;;;;;;7.35;3.53;;;18.30;99.90;;;;;;5018621;28;20511;-77
2022/08/03 05:00:24;;;;;;;11.38;3.60;;;18.40;99.90;;;;;;5023448;28;20531;-77
2022/08/03 05:02:54;;;;;;;10.07;4.20;;;18.40;99.90;;;;;;5023385;28;20033;-77
2022/08/03 05:05:20;;;;;;;10.05;4.50;;;18.40;99.90;;;;;;5022867;28;20038;-76
2022/08/03 05:07:46;;;;;;;10.02;4.18;;;18.50;99.90;;;;;;5007769;28;20048;-77
2022/08/03 05:10:13;;;;;;;9.13;4.10;;;18.50;99.90;;;;;;5022896;28;20214;-77
2022/08/03 05:12:39;;;;;;;12.45;4.35;;;18.50;99.90;;;;;;5007541;28;20415;-77
2022/08/03 05:15:06;;;;;;;8.75;4.15;;;18.50;99.90;;;;;;5020666;28;20100;-77
2022/08/03 05:17:35;;;;;;;11.15;3.85;;;18.50;99.90;;;;;;5014997;28;20068;-77
2022/08/03 05:20:05;;;;;;;13.18;4.47;;;18.50;99.90;;;;;;5007602;28;20038;-77
2022/08/03 05:22:31;;;;;;;9.75;4.22;;;18.60;99.90;;;;;;5024837;28;20049;-77
2022/08/03 05:24:57;;;;;;;8.98;4.80;;;18.60;99.90;;;;;;5003824;28;20475;-77
2022/08/03 05:27:26;;;;;;;10.40;4.63;;;18.70;99.90;;;;;;5018263;28;20045;-77
2022/08/03 05:29:55;;;;;;;14.00;4.60;;;18.70;99.90;;;;;;5016680;28;20136;-77
2022/08/03 05:32:21;;;;;;;10.05;4.22;;;18.70;99.90;;;;;;5014128;28;20042;-77
2022/08/03 05:34:46;;;;;;;12.13;4.72;;;18.80;99.90;;;;;;5001932;28;20053;-77
2022/08/03 05:37:12;;;;;;;12.68;5.00;;;18.80;99.90;;;;;;5010764;28;20567;-77
2022/08/03 05:39:38;;;;;;;11.18;4.40;;;18.80;99.90;;;;;;5012797;28;20053;-77
2022/08/03 05:42:03;;;;;;;11.73;4.43;;;18.90;99.90;;;;;;5003330;28;20128;-77
2022/08/03 05:44:30;;;;;;;8.75;4.68;;;18.90;99.90;;;;;;5021922;28;20041;-77
2022/08/03 05:46:57;;;;;;;14.13;4.75;;;19.00;99.90;;;;;;4993720;28;20041;-77
2022/08/03 05:49:23;;;;;;;12.82;4.88;;;19.00;99.90;;;;;;5021233;28;20045;-77
2022/08/03 05:51:49;;;;;;;9.52;4.93;;;19.10;99.90;;;;;;5018669;28;20455;-77
2022/08/03 05:54:15;;;;;;;11.95;4.82;;;19.10;99.90;;;;;;5018852;28;20058;-77
2022/08/03 05:56:40;;;;;;;11.02;4.85;;;19.10;99.90;;;;;;5001353;28;20486;-77
2022/08/03 05:59:06;;;;;;;12.23;5.13;;;19.10;99.90;;;;;;5000363;28;20533;-77
2022/08/03 06:01:38;;;;;;;9.00;4.78;;;19.20;99.90;;;;;;5000215;28;20055;-78
2022/08/03 06:04:03;;;;;;;9.70;4.72;;;19.20;99.90;;;;;;4976905;28;20074;-77
2022/08/03 06:06:29;;;;;;;12.05;4.93;;;19.20;99.90;;;;;;4970462;28;20112;-77
2022/08/03 06:08:55;;;;;;;12.27;4.80;;;19.30;99.90;;;;;;4982189;28;20327;-77
2022/08/03 06:11:21;;;;;;;12.40;4.80;;;19.30;99.90;;;;;;5015458;28;20045;-77
2022/08/03 06:13:47;;;;;;;15.52;5.25;;;19.50;99.90;;;;;;5021643;28;20064;-77
2022/08/03 06:16:16;;;;;;;12.40;4.97;;;19.50;99.90;;;;;;5007197;28;20068;-77
2022/08/03 06:18:41;;;;;;;15.10;5.38;;;19.70;99.90;;;;;;4988469;28;20037;-77
2022/08/03 06:21:08;;;;;;;11.30;4.60;;;19.70;99.90;;;;;;5023153;28;20693;-77
2022/08/03 06:23:38;;;;;;;14.20;4.30;;;19.70;99.90;;;;;;5018536;28;20057;-77
2022/08/03 06:26:04;;;;;;;11.05;4.75;;;19.70;99.90;;;;;;5037344;28;20455;-77
2022/08/03 06:28:29;;;;;;;14.75;5.05;;;19.80;99.90;;;;;;5021011;28;20180;-77
2022/08/03 06:30:55;;;;;;;14.45;5.88;;;19.80;99.90;;;;;;5008433;28;20392;-77
2022/08/03 06:33:25;;;;;;;14.38;5.30;;;19.90;99.90;;;;;;4990066;28;20037;-77
2022/08/03 06:35:51;;;;;;;12.38;4.63;;;19.90;99.90;;;;;;5000573;28;20304;-77
2022/08/03 06:38:17;;;;;;;14.32;5.30;;;20.00;99.90;;;;;;5003821;28;20129;-78
2022/08/03 06:40:42;;;;;;;13.90;4.85;;;20.00;99.90;;;;;;5006654;28;20045;-77
2022/08/03 06:43:13;;;;;;;14.48;5.40;;;20.00;99.90;;;;;;5006014;28;20060;-78
2022/08/03 06:45:39;;;;;;;11.30;4.57;;;20.10;99.90;;;;;;5023732;28;20063;-78
2022/08/03 06:48:12;;;;;;;12.95;5.80;;;20.10;99.90;;;;;;5017705;28;20041;-77
2022/08/03 06:50:40;;;;;;;17.60;4.95;;;20.20;99.90;;;;;;5023469;28;20060;-78
2022/08/03 06:53:07;;;;;;;14.45;5.07;;;20.20;99.90;;;;;;5023338;28;20187;-77
2022/08/03 06:55:56;;;;;;;12.38;5.10;;;20.30;99.90;;;;;;5023678;28;20060;-77
2022/08/03 06:58:22;;;;;;;15.40;5.38;;;20.30;99.90;;;;;;5011644;28;20053;-77
2022/08/03 07:00:48;;;;;;;11.73;5.13;;;20.30;99.90;;;;;;5019618;28;20061;-77
2022/08/03 07:03:14;;;;;;;11.70;4.68;;;20.30;99.90;;;;;;5023666;28;20135;-77
2022/08/03 07:05:41;;;;;;;13.18;5.63;;;20.30;99.90;;;;;;5020793;28;20045;-77
2022/08/03 07:08:06;;;;;;;13.38;5.72;;;20.40;99.90;;;;;;5006733;28;20034;-77
2022/08/03 07:10:32;;;;;;;15.57;5.55;;;20.40;99.90;;;;;;5008725;28;20045;-77
2022/08/03 07:13:01;;;;;;;12.05;5.57;;;20.50;99.90;;;;;;5024195;28;20128;-77
2022/08/03 07:15:27;;;;;;;14.35;5.25;;;20.50;99.90;;;;;;5017351;28;20045;-77
2022/08/03 07:17:56;;;;;;;15.77;5.57;;;20.60;99.90;;;;;;5017311;28;20045;-77
2022/08/03 07:20:24;;;;;;;14.60;4.60;;;20.70;99.90;;;;;;5017876;28;20042;-77
2022/08/03 07:22:50;;;;;;;13.60;5.28;;;20.70;99.90;;;;;;5004166;28;20079;-77
2022/08/03 07:25:16;;;;;;;12.32;5.43;;;20.70;99.90;;;;;;5021674;28;20084;-77
2022/08/03 07:27:46;;;;;;;14.15;5.00;;;20.80;99.90;;;;;;5004032;28;20120;-77
2022/08/03 07:30:13;;;;;;;14.85;5.53;;;20.90;99.90;;;;;;5022637;28;20439;-76
2022/08/03 07:32:40;;;;;;;13.05;5.00;;;21.00;99.90;;;;;;5017426;28;20057;-78
2022/08/03 07:35:07;;;;;;;10.60;4.70;;;21.10;99.90;;;;;;5020539;28;20122;-77
2022/08/03 07:37:33;;;;;;;14.50;5.13;;;21.20;99.90;;;;;;5020512;28;20060;-77
2022/08/03 07:40:00;;;;;;;17.73;4.75;;;21.30;99.90;;;;;;5019194;28;20053;-77
2022/08/03 07:42:29;;;;;;;14.23;4.53;;;21.40;99.90;;;;;;5006336;28;20041;-77
2022/08/03 07:44:56;;;;;;;17.48;4.90;;;21.50;99.90;;;;;;5009692;28;20045;-77
2022/08/03 07:47:24;;;;;;;15.10;4.82;;;21.60;99.90;;;;;;5013664;28;20048;-77
2022/08/03 07:49:50;;;;;;;12.10;4.72;;;21.80;99.90;;;;;;5019520;28;20049;-77
2022/08/03 07:55:05;;;;;;;13.18;4.88;;;21.90;99.90;;;;;;5018275;28;20100;-77
2022/08/03 07:57:32;;;;;;;12.20;4.90;;;22.00;99.90;;;;;;5019886;28;20089;-77
2022/08/03 07:59:58;;;;;;;14.18;4.25;;;22.10;99.90;;;;;;4993370;28;20148;-77
2022/08/03 08:02:26;;;;;;;14.20;4.45;;;22.30;99.90;;;;;;5017550;28;20120;-77
2022/08/03 08:04:55;;;;;;;12.27;4.63;;;22.40;99.90;;;;;;5003329;28;20049;-77
2022/08/03 08:07:21;;;;;;;15.93;4.70;;;22.50;99.90;;;;;;5013977;28;20353;-76
2022/08/03 08:09:47;;;;;;;16.13;4.47;;;22.60;99.90;;;;;;4972590;28;20460;-76
2022/08/03 08:12:13;;;;;;;12.35;4.25;;;22.70;99.90;;;;;;5010929;28;20052;-76
2022/08/03 08:14:40;;;;;;;11.98;4.85;;;22.80;99.90;;;;;;5005375;28;20041;-77
2022/08/03 08:17:06;;;;;;;15.30;4.40;;;22.90;99.90;;;;;;5009020;28;20505;-76
2022/08/03 08:19:32;;;;;;;15.85;5.20;;;23.00;99.90;;;;;;5019276;28;20099;-78
2022/08/03 08:21:57;;;;;;;16.27;4.85;;;23.10;99.90;;;;;;5022019;28;20099;-78
2022/08/03 08:24:23;;;;;;;14.82;4.97;;;23.30;99.90;;;;;;4987461;28;20045;-78
2022/08/03 08:26:49;;;;;;;11.68;4.43;;;23.50;99.90;;;;;;5021496;28;20592;-77
2022/08/03 08:29:15;;;;;;;16.33;4.40;;;23.60;99.90;;;;;;5003304;28;20052;-78
2022/08/03 08:31:44;;;;;;;11.35;4.10;;;23.70;99.90;;;;;;5009736;28;20045;-76
2022/08/03 08:34:09;;;;;;;13.32;4.05;;;23.70;99.90;;;;;;5022273;28;20061;-76
2022/08/03 08:36:35;;;;;;;12.85;3.80;;;23.80;99.90;;;;;;5003594;28;20542;-76
2022/08/03 08:39:01;;;;;;;16.75;4.72;;;23.80;99.90;;;;;;5001267;28;20038;-78
2022/08/03 08:41:27;;;;;;;14.30;4.60;;;23.80;99.90;;;;;;5018078;28;20099;-76
2022/08/03 08:43:54;;;;;;;15.25;4.10;;;23.90;99.90;;;;;;5006435;28;20064;-76
2022/08/03 08:46:20;;;;;;;13.60;4.68;;;23.90;99.90;;;;;;5022091;28;20038;-76
2022/08/03 08:48:48;;;;;;;11.60;3.80;;;24.00;99.90;;;;;;5021504;28;20048;-76
2022/08/03 08:51:18;;;;;;;12.35;3.92;;;24.00;99.90;;;;;;5003681;28;20442;-76
2022/08/03 08:53:50;;;;;;;17.25;4.07;;;24.10;99.90;;;;;;5011719;28;20048;-75
2022/08/03 08:56:17;;;;;;;15.10;3.90;;;24.20;99.90;;;;;;5020386;28;20041;-76
2022/08/03 08:58:57;;;;;;;14.60;3.67;;;24.30;99.90;;;;;;5006455;28;20585;-76
2022/08/03 09:01:27;;;;;;;11.68;3.58;;;24.40;99.90;;;;;;5012250;28;20080;-77
2022/08/03 09:03:56;;;;;;;11.02;3.42;;;24.50;99.90;;;;;;5005689;28;20060;-75
2022/08/03 09:06:24;;;;;;;16.20;4.13;;;24.60;99.90;;;;;;4973651;28;20071;-78
2022/08/03 09:08:50;;;;;;;14.50;4.10;;;24.70;99.90;;;;;;4999832;28;20036;-77
2022/08/03 09:11:21;;;;;;;11.10;3.65;;;24.80;99.90;;;;;;5011264;28;20296;-76
2022/08/03 09:13:47;;;;;;;14.52;3.80;;;24.80;99.90;;;;;;5020207;28;20063;-76
2022/08/03 09:16:21;;;;;;;12.82;3.95;;;24.90;99.90;;;;;;5009405;28;20049;-76
2022/08/03 09:18:54;;;;;;;14.95;3.95;;;25.10;99.90;;;;;;5000775;28;20042;-76
2022/08/03 09:21:30;;;;;;;16.75;5.57;;;25.20;99.90;;;;;;5017501;28;20126;-76
2022/08/03 09:23:57;;;;;;;14.05;3.92;;;25.20;99.90;;;;;;5002386;28;20342;-76
2022/08/03 09:26:28;;;;;;;11.15;3.55;;;25.30;99.90;;;;;;5019042;28;20042;-76
2022/08/03 09:28:58;;;;;;;11.57;3.40;;;25.40;99.90;;;;;;5013721;28;20042;-75
2022/08/03 09:31:38;;;;;;;9.52;3.65;;;25.50;99.90;;;;;;5037305;28;20083;-77
2022/08/03 09:34:06;;;;;;;11.02;3.40;;;25.70;99.90;;;;;;5020651;28;20076;-78
2022/08/03 09:36:37;;;;;;;11.13;3.03;;;25.80;99.90;;;;;;5002974;28;20048;-77
2022/08/03 09:39:10;;;;;;;11.45;3.20;;;25.90;99.90;;;;;;5021705;28;20068;-78
2022/08/03 09:41:40;;;;;;;12.73;3.35;;;26.00;99.90;;;;;;5019513;28;20053;-76
2022/08/03 09:44:07;;;;;;;10.82;3.30;;;26.20;99.90;;;;;;5004860;28;20053;-77
2022/08/03 09:47:03;;;;;;;14.05;3.25;;;26.30;99.90;;;;;;5017822;28;20080;-77
2022/08/03 09:49:29;;;;;;;12.25;3.58;;;26.40;99.90;;;;;;4991680;28;20060;-77
2022/08/03 09:51:55;;;;;;;13.23;3.50;;;26.50;99.90;;;;;;5006813;28;20400;-77
2022/08/03 09:54:28;;;;;;;12.23;3.53;;;26.60;99.90;;;;;;5007427;28;20037;-77
2022/08/03 09:56:55;;;;;;;13.38;3.40;;;26.70;99.90;;;;;;5016905;28;20390;-77
2022/08/03 09:59:28;;;;;;;8.93;2.70;;;26.90;99.90;;;;;;5009994;28;20100;-77
2022/08/03 10:01:56;;;;;;;12.13;3.17;;;27.00;99.90;;;;;;5008335;28;20049;-77
2022/08/03 10:04:25;;;;;;;11.38;2.88;;;27.10;99.90;;;;;;5022429;28;20509;-77
2022/08/03 10:07:03;;;;;;;;;;;27.10;99.90;;;;;;5001626;28;20069;-77
2022/08/03 10:09:28;;;;;;;11.20;2.80;;;27.30;99.90;;;;;;5011985;28;19925;-77
2022/08/03 10:11:54;;;;;;;14.82;2.50;;;27.40;99.90;;;;;;5020299;28;20111;-77
2022/08/03 10:14:22;;;;;;;11.38;2.42;;;27.40;99.90;;;;;;4999250;28;20107;-77
2022/08/03 10:16:51;;;;;;;13.35;3.10;;;27.40;99.90;;;;;;5009037;28;20049;-77
2022/08/03 10:19:17;;;;;;;11.33;3.23;;;27.50;99.90;;;;;;5005692;28;20619;-75
2022/08/03 10:21:50;;;;;;;12.35;3.55;;;27.60;99.90;;;;;;5008697;28;20045;-76
2022/08/03 10:24:19;;;;;;;12.38;3.00;;;27.70;99.90;;;;;;5008927;28;20049;-75
2022/08/03 10:26:46;;;;;;;14.70;3.20;;;27.70;99.90;;;;;;5001568;28;20041;-76
2022/08/03 10:29:19;;;;;;;8.93;2.55;;;27.60;99.90;;;;;;5024093;28;20041;-76
2022/08/03 10:31:46;;;;;;;11.98;2.67;;;27.70;99.90;;;;;;5017842;28;20077;-76
2022/08/03 10:34:21;;;;;;;9.43;3.05;;;27.80;99.90;;;;;;5020124;28;20111;-76
2022/08/03 10:36:50;;;;;;;16.02;2.90;;;28.10;99.90;;;;;;5021258;28;20042;-76
2022/08/03 10:39:20;;;;;;;12.27;3.63;;;28.20;99.90;;;;;;5014833;28;20041;-75
2022/08/03 10:41:47;;;;;;;12.15;3.08;;;28.20;99.90;;;;;;4997468;28;20056;-76
2022/08/03 10:44:17;;;;;;;13.25;2.55;;;28.30;99.90;;;;;;5016361;28;20568;-76
2022/08/03 10:46:45;;;;;;;13.75;2.97;;;28.30;99.90;;;;;;5007066;28;20058;-75
2022/08/03 10:49:17;;;;;;;13.80;3.20;;;28.40;99.90;;;;;;5025215;28;20081;-75
2022/08/03 10:51:45;;;;;;;12.77;3.17;;;28.40;99.90;;;;;;5016609;28;20050;-75
2022/08/03 10:57:47;;;;;;;13.85;3.20;;;28.40;99.90;;;;;;5012691;28;20054;-75
2022/08/03 11:00:15;;;;;;;14.73;3.08;;;28.50;99.90;;;;;;5017714;28;20053;-75
2022/08/03 11:03:00;;;;;;;18.70;3.95;;;28.60;99.90;;;;;;5017685;28;20080;-75
2022/08/03 11:05:28;;;;;;;12.65;3.25;;;28.70;99.90;;;;;;5015904;28;20457;-76
2022/08/03 11:08:22;;;;;;;12.40;3.25;;;28.70;99.90;;;;;;5005656;28;20500;-76
2022/08/03 11:10:51;;;;;;;14.82;3.10;;;28.80;99.90;;;;;;5007296;28;20144;-76
2022/08/03 11:13:19;;;;;;;14.38;3.35;;;28.90;99.90;;;;;;5022477;28;20116;-76
2022/08/03 11:15:47;;;;;;;13.82;3.28;;;28.80;99.90;;;;;;5021156;28;20049;-75
2022/08/03 11:18:14;;;;;;;16.48;2.97;;;28.80;99.90;;;;;;5007731;28;20512;-78
2022/08/03 11:20:51;;;;;;;16.95;3.53;;;28.70;99.90;;;;;;5009975;28;20803;-78
2022/08/03 11:23:38;;;;;;;17.85;3.33;;;28.70;99.90;;;;;;5013737;28;20539;-78
2022/08/03 11:26:14;;;;;;;14.82;3.08;;;28.50;97.60;;;;;;5000815;28;20242;-76
2022/08/03 11:28:42;;;;;;;10.50;3.05;;;28.40;98.30;;;;;;5019930;28;20134;-76
2022/08/03 11:31:29;;;;;;;15.13;3.00;;;28.30;99.90;;;;;;5017419;28;20041;-76
2022/08/03 11:34:06;;;;;;;13.25;2.75;;;28.30;99.90;;;;;;5019991;28;20492;-76
2022/08/03 11:37:09;;;;;;;17.23;3.33;;;28.30;99.60;;;;;;5015524;28;20511;-76
2022/08/03 11:39:42;;;;;;;15.02;4.28;;;28.30;99.90;;;;;;5020643;28;20042;-76
2022/08/03 11:42:24;;;;;;;18.17;3.05;;;28.30;99.70;;;;;;5022856;28;20236;-76
2022/08/03 11:44:59;;;;;;;14.40;3.38;;;28.40;99.90;;;;;;5038579;28;20540;-76
2022/08/03 11:47:27;;;;;;;12.23;2.90;;;28.60;99.90;;;;;;5018165;28;20481;-76
2022/08/03 11:49:57;;;;;;;13.95;3.40;;;28.90;99.90;;;;;;5024670;28;20106;-76
2022/08/03 11:52:24;;;;;;;11.73;2.83;;;29.00;98.90;;;;;;5022526;28;20049;-76
2022/08/03 11:54:51;;;;;;;14.15;3.33;;;29.10;98.70;;;;;;5012016;28;20477;-76
2022/08/03 11:57:31;;;;;;;13.05;3.22;;;29.10;98.30;;;;;;5011250;28;20451;-76
2022/08/03 11:59:56;;;;;;;15.68;2.97;;;29.30;99.30;;;;;;4997089;28;20038;-75
2022/08/03 12:02:23;;;;;;;15.85;3.08;;;29.30;99.10;;;;;;4999039;28;20049;-76
2022/08/03 12:05:00;;;;;;;14.27;2.92;;;29.40;98.40;;;;;;5012674;28;20400;-76
2022/08/03 12:07:27;;;;;;;14.43;2.85;;;29.50;96.40;;;;;;4995021;28;20037;-76
2022/08/03 12:10:09;;;;;;;10.38;2.47;;;29.60;93.60;;;;;;5014537;28;20048;-75
2022/08/03 12:12:36;;;;;;;12.75;2.92;;;29.50;93.90;;;;;;5012944;28;20045;-76
2022/08/03 12:15:03;;;;;;;11.88;2.70;;;29.70;94.00;;;;;;5012237;28;20061;-76
2022/08/03 12:17:36;;;;;;;17.23;3.60;;;29.70;94.10;;;;;;4993346;28;20182;-76
2022/08/03 12:20:04;;;;;;;13.85;3.08;;;29.80;93.20;;;;;;5013669;28;20684;-76
2022/08/03 12:22:36;;;;;;;16.33;3.10;;;29.90;93.30;;;;;;5012738;28;20057;-75
2022/08/03 12:25:03;;;;;;;17.05;3.15;;;30.00;96.70;;;;;;5010127;28;20088;-75
2022/08/03 12:27:28;;;;;;;11.68;2.83;;;30.20;94.90;;;;;;5010824;28;20132;-75
2022/08/03 12:29:56;;;;;;;11.02;2.70;;;30.30;91.80;;;;;;5005822;28;20045;-76
2022/08/03 12:32:24;;;;;;;13.07;2.88;;;30.30;90.10;;;;;;5009809;28;20041;-76
2022/08/03 12:34:51;;;;;;;12.50;3.00;;;30.30;88.30;;;;;;5005620;28;20053;-76
2022/08/03 12:37:21;;;;;;;16.40;2.67;;;30.30;84.70;;;;;;4994604;28;20070;-76
2022/08/03 12:39:58;;;;;;;12.30;2.60;;;30.30;77.10;;;;;;5017664;28;20051;-76
2022/08/03 12:42:34;;;;;;;11.35;2.55;;;30.20;75.70;;;;;;4997406;28;20042;-75
2022/08/03 12:45:20;;;;;;;13.15;2.60;;;30.20;82.00;;;;;;5002013;28;20137;-75
2022/08/03 12:47:57;;;;;;;10.82;2.50;;;30.30;88.30;;;;;;5000844;28;20076;-74
2022/08/03 12:50:27;;;;;;;12.57;2.30;;;30.30;75.10;;;;;;5011122;28;20042;-76
2022/08/03 12:52:53;;;;;;;11.55;2.33;;;30.30;72.90;;;;;;5019547;28;20400;-75
2022/08/03 12:55:21;;;;;;;9.60;1.85;;;30.30;71.30;;;;;;5013009;28;20172;-75
2022/08/03 12:57:50;;;;;;;10.45;2.22;;;30.30;70.10;;;;;;5011630;28;20541;-75
2022/08/03 13:00:21;;;;;;;9.80;1.95;;;30.30;69.60;;;;;;5004136;28;20042;-75
2022/08/03 13:03:02;;;;;;;11.52;2.58;;;30.30;69.90;;;;;;4994839;28;20095;-76
2022/08/03 13:05:30;;;;;;;10.27;2.30;;;30.40;73.50;;;;;;5011854;28;20049;-76